Flight Track Log - Related Links

Times and Time Zones

All times are in EST time to prevent confusion due to time zone crossing. See the SWA1435 flight status page for this flight to view local times or setup timezone preferences in your user account.

Time Position Orientation Groundspeed Altitude Reporting Facility
EST Latitude Longitude Course Direction KTS MPH feet Rate Location/Type
Wed 01:08:17 PM 39.3333 -94.7167 360° North 140 161 2,400  Level Kansas City TRACON
Wed 01:09:17 PM 39.3833 -94.7500 333° Northwest 209 241 4,600 1,895 Climbing Kansas City TRACON
Wed 01:10:11 PM 39.3667 -94.8167 252° West 253 291 6,000 2,684 Climbing Kansas City TRACON
Wed 01:11:11 PM 39.3333 -94.9000 243° Southwest 279 321 9,700 2,818 Climbing Kansas City TRACON
Wed 01:12:23 PM 39.3078 -95.0208 255° West 310 357 12,200 2,776 Climbing Kansas City Center
Wed 01:13:25 PM 39.2717 -95.1564 251° West 350 403 15,900 3,120 Climbing Kansas City Center
Wed 01:14:28 PM 39.2389 -95.2781 251° West 358 412 18,700 2,736 Climbing Kansas City Center
Wed 01:15:30 PM 39.2089 -95.4019 253° West 363 418 21,600 2,081 Climbing Kansas City Center
Wed 01:16:32 PM 39.1964 -95.5264 263° West 369 425 23,000 1,871 Climbing Kansas City Center
Wed 01:18:36 PM 39.1639 -95.8017 261° West 376 433 27,400 2,290 Climbing Kansas City Center
Wed 01:19:38 PM 39.1458 -95.9492 261° West 375 432 30,100 2,177 Climbing Kansas City Center
Wed 01:20:40 PM 39.1317 -96.0700 261° West 359 413 31,900 919 Climbing Kansas City Center
Wed 01:21:42 PM 39.1133 -96.2114 261° West 359 413 32,000 48 Climbing Kansas City Center
Wed 01:22:44 PM 39.0978 -96.3344 261° West 364 419 32,000  Level Kansas City Center
Wed 01:23:46 PM 39.0664 -96.4714 254° West 358 412 32,000  Level Kansas City Center
Wed 01:24:48 PM 39.0356 -96.5872 251° West 358 412 32,000 48 Level Kansas City Center
Wed 01:25:50 PM 39.0006 -96.7214 251° West 355 409 32,100 581 Climbing Kansas City Center
Wed 01:26:52 PM 38.9722 -96.8303 252° West 361 415 33,200 919 Climbing Kansas City Center
Wed 01:27:54 PM 38.9383 -96.9547 251° West 368 423 34,000 387 Climbing Kansas City Center
Wed 01:28:56 PM 38.8997 -97.1017 251° West 364 419 34,000  Level Kansas City Center
Wed 01:29:58 PM 38.8667 -97.2236 251° West 363 418 34,000  Level Kansas City Center
Wed 01:31:01 PM 38.8342 -97.3442 251° West 360 414 34,000  Level Kansas City Center
Wed 01:32:03 PM 38.8014 -97.4661 251° West 362 417 34,000 726 Level Kansas City Center
Wed 01:33:05 PM 38.7639 -97.6008 250° West 364 419 35,500 1,161 Climbing Kansas City Center
Wed 01:34:07 PM 38.7344 -97.7144 252° West 353 406 36,400 629 Climbing Kansas City Center
Wed 01:35:09 PM 38.6958 -97.8536 250° West 364 419 36,800 435 Climbing Kansas City Center
Wed 01:36:11 PM 38.6594 -97.9833 250° West 383 441 37,300 581 Climbing Kansas City Center
Wed 01:37:13 PM 38.6242 -98.1144 251° West 391 450 38,000 339 Climbing Kansas City Center
Wed 01:38:15 PM 38.5872 -98.2444 250° West 392 451 38,000  Level Kansas City Center
Wed 01:39:17 PM 38.5508 -98.3753 250° West 393 452 38,000  Level Kansas City Center
Wed 01:40:19 PM 38.5069 -98.5314 250° West 392 451 38,000  Level Kansas City Center
Wed 01:41:21 PM 38.4700 -98.6625 250° West 394 453 38,000  Level Kansas City Center
Wed 01:42:23 PM 38.4319 -98.7931 250° West 394 453 38,000  Level Kansas City Center
Wed 01:43:25 PM 38.3953 -98.9247 250° West 396 456 38,000  Level Kansas City Center
Wed 01:44:27 PM 38.3572 -99.0564 250° West 396 456 38,000  Level Kansas City Center
Wed 01:45:29 PM 38.3192 -99.1864 250° West 394 453 38,000  Level Kansas City Center
Wed 01:46:31 PM 38.2747 -99.3444 250° West 396 456 38,000  Level Kansas City Center
Wed 01:47:33 PM 38.2361 -99.4753 249° West 397 457 38,000  Level Kansas City Center
Wed 01:48:36 PM 38.1961 -99.6075 249° West 396 456 38,000  Level Kansas City Center
Wed 01:49:38 PM 38.1533 -99.7522 249° West 393 452 38,000  Level Kansas City Center
Wed 01:50:40 PM 38.1169 -99.8756 249° West 390 449 38,000  Level Kansas City Center
Wed 01:51:42 PM 38.0750 -100.0183 250° West 388 447 38,000  Level Kansas City Center
Wed 01:52:44 PM 38.0367 -100.1406 248° West 389 448 38,000  Level Kansas City Center
Wed 01:53:46 PM 37.9950 -100.2831 250° West 388 447 38,000  Level Kansas City Center
Wed 01:54:48 PM 37.9569 -100.4056 249° West 389 448 38,000  Level Kansas City Center
Wed 01:55:50 PM 37.9136 -100.5489 249° West 392 451 38,000  Level Kansas City Center
Wed 01:56:52 PM 37.8761 -100.6731 249° West 395 455 38,000  Level Kansas City Center
Wed 01:57:54 PM 37.8314 -100.8181 249° West 398 458 38,000  Level Kansas City Center
Wed 01:58:56 PM 37.7931 -100.9428 249° West 402 463 38,000  Level Kansas City Center
Wed 01:59:58 PM 37.7511 -101.0764 248° West 403 464 38,000  Level Kansas City Center
Wed 02:01:00 PM 37.7081 -101.2133 248° West 405 466 38,000  Level Kansas City Center
Wed 02:02:02 PM 37.6619 -101.3614 249° West 408 470 38,000  Level Kansas City Center
Wed 02:03:04 PM 37.6211 -101.4883 248° West 408 470 38,000  Level Kansas City Center
Wed 02:04:06 PM 37.5744 -101.6383 249° West 413 475 38,000  Level Kansas City Center
Wed 02:05:09 PM 37.5336 -101.7661 248° West 411 473 38,000  Level Kansas City Center
Wed 02:06:11 PM 37.4867 -101.9158 248° West 412 474 38,000  Level Kansas City Center
Wed 02:07:13 PM 37.4458 -102.0400 248° West 405 466 38,000  Level Kansas City Center
Wed 02:08:15 PM 37.4000 -102.1833 248° West 399 459 38,000  Level Kansas City Center
Wed 02:09:17 PM 37.3611 -102.3036 248° West 392 451 38,000  Level Kansas City Center
Wed 02:10:09 PM 37.3244 -102.4186 248° West 389 448 38,000  Level Albuquerque Center
Wed 02:11:11 PM 37.2883 -102.5369 249° West 382 440 38,000  Level Albuquerque Center
Wed 02:12:13 PM 37.2433 -102.6725 247° West 378 435 38,000  Level Albuquerque Center
Wed 02:13:15 PM 37.2039 -102.7886 247° West 378 435 38,000  Level Albuquerque Center
Wed 02:14:16 PM 37.1581 -102.9253 247° West 380 437 38,000  Level Albuquerque Center
Wed 02:15:18 PM 37.1194 -103.0431 248° West 381 438 38,000 387 Level Albuquerque Center
Wed 02:16:20 PM 37.0814 -103.1586 248° West 376 433 38,800 726 Climbing Albuquerque Center
Wed 02:17:22 PM 37.0342 -103.2964 247° West 382 440 39,500 581 Climbing Albuquerque Center
Wed 02:18:24 PM 36.9950 -103.4164 248° West 386 444 40,000 242 Climbing Albuquerque Center
Wed 02:19:26 PM 36.9472 -103.5572 247° West 391 450 40,000  Level Albuquerque Center
Wed 02:20:28 PM 36.9067 -103.6772 247° West 390 449 40,000  Level Albuquerque Center
Wed 02:21:29 PM 36.8586 -103.8175 247° West 391 450 40,000  Level Albuquerque Center
Wed 02:22:31 PM 36.8181 -103.9375 247° West 391 450 40,000  Level Albuquerque Center
Wed 02:23:33 PM 36.7781 -104.0556 247° West 388 447 40,000  Level Albuquerque Center
Wed 02:24:35 PM 36.7300 -104.1928 246° West 386 444 40,000  Level Albuquerque Center
Wed 02:25:37 PM 36.6894 -104.3100 247° West 384 442 40,000  Level Albuquerque Center
Wed 02:26:39 PM 36.6411 -104.4450 246° West 386 444 40,000  Level Albuquerque Center
Wed 02:27:40 PM 36.5972 -104.5706 247° West 390 449 40,000  Level Albuquerque Center
Wed 02:28:42 PM 36.5536 -104.6942 246° West 390 449 40,000  Level Albuquerque Center
Wed 02:29:44 PM 36.5108 -104.8186 247° West 388 447 40,000  Level Albuquerque Center
Wed 02:30:46 PM 36.4664 -104.9433 246° West 391 450 40,000  Level Albuquerque Center
Wed 02:31:48 PM 36.4261 -105.0683 248° West 390 449 40,000  Level Albuquerque Center
Wed 02:32:50 PM 36.3786 -105.2097 247° West 381 438 40,000  Level Albuquerque Center
Wed 02:33:52 PM 36.3350 -105.3358 247° West 391 450 40,000  Level Albuquerque Center
Wed 02:34:53 PM 36.2947 -105.4567 248° West 383 441 40,000  Level Albuquerque Center
Wed 02:35:55 PM 36.2561 -105.5711 247° West 387 445 40,000  Level Albuquerque Center
Wed 02:36:57 PM 36.2144 -105.6950 247° West 390 449 40,000  Level Albuquerque Center
Wed 02:37:59 PM 36.1631 -105.8450 247° West 394 453 40,000  Level Albuquerque Center
Wed 02:39:01 PM 36.1197 -105.9711 247° West 399 459 40,000  Level Albuquerque Center
Wed 02:40:03 PM 36.0758 -106.0972 247° West 401 461 40,000  Level Albuquerque Center
Wed 02:41:05 PM 36.0333 -106.2242 248° West 401 461 40,000 -49 Level Albuquerque Center
Wed 02:42:06 PM 35.9883 -106.3514 246° West 406 467 39,900 -585 Descending Albuquerque Center
Wed 02:43:08 PM 35.9444 -106.4775 247° West 405 466 38,800 -919 Descending Albuquerque Center
Wed 02:44:10 PM 35.8947 -106.6161 246° West 401 461 38,000 -387 Descending Albuquerque Center
Wed 02:45:12 PM 35.8442 -106.7594 247° West 408 470 38,000  Level Albuquerque Center
Wed 02:46:14 PM 35.8003 -106.8831 246° West 410 472 38,000  Level Albuquerque Center
Wed 02:47:15 PM 35.7497 -107.0281 247° West 411 473 38,000  Level Albuquerque Center
Wed 02:48:17 PM 35.7050 -107.1517 246° West 412 474 38,000  Level Albuquerque Center
Wed 02:49:19 PM 35.6617 -107.2753 247° West 411 473 38,000  Level Albuquerque Center
Wed 02:50:21 PM 35.6561 -107.4339 268° West 418 481 38,000  Level Albuquerque Center
Wed 02:51:22 PM 35.6511 -107.5675 267° West 412 474 38,000 -49 Level Albuquerque Center
Wed 02:52:24 PM 35.6450 -107.7236 267° West 410 472 37,900 -484 Descending Albuquerque Center
Wed 02:53:26 PM 35.6406 -107.8569 268° West 408 470 37,000 -435 Descending Albuquerque Center
Wed 02:54:28 PM 35.5931 -107.9997 248° West 410 472 37,000 -339 Level Albuquerque Center
Wed 02:55:30 PM 35.5381 -108.1172 240° Southwest 411 473 36,300 -488 Descending Albuquerque Center
Wed 02:56:31 PM 35.4828 -108.2356 240° Southwest 414 476 36,000 -146 Descending Albuquerque Center
Wed 02:57:33 PM 35.4181 -108.3747 240° Southwest 417 480 36,000 -290 Level Albuquerque Center
Wed 02:58:35 PM 35.3619 -108.4939 240° Southwest 418 481 35,400 -774 Descending Albuquerque Center
Wed 02:59:37 PM 35.2953 -108.6364 240° Southwest 425 489 34,400 -677 Descending Albuquerque Center
Wed 03:00:39 PM 35.2367 -108.7594 240° Southwest 432 497 34,000 -194 Descending Albuquerque Center
Wed 03:01:41 PM 35.1700 -108.9025 240° Southwest 433 498 34,000  Level Albuquerque Center
Wed 03:02:43 PM 35.1114 -109.0250 240° Southwest 434 499 34,000  Level Albuquerque Center
Wed 03:03:44 PM 35.0531 -109.1456 239° Southwest 432 497 34,000  Level Albuquerque Center
Wed 03:04:46 PM 34.9853 -109.2897 240° Southwest 435 501 34,000  Level Albuquerque Center
Wed 03:05:48 PM 34.9267 -109.4122 240° Southwest 436 502 34,000  Level Albuquerque Center
Wed 03:06:50 PM 34.8578 -109.5539 239° Southwest 436 502 34,000  Level Albuquerque Center
Wed 03:07:52 PM 34.7989 -109.6769 240° Southwest 437 503 34,000 -387 Level Albuquerque Center
Wed 03:08:54 PM 34.7300 -109.8208 240° Southwest 440 506 33,200 -878 Descending Albuquerque Center
Wed 03:09:55 PM 34.6781 -109.9489 244° Southwest 439 505 32,200 -976 Descending Albuquerque Center
Wed 03:10:57 PM 34.6319 -110.0775 246° West 433 498 31,200 -1,016 Descending Albuquerque Center
Wed 03:11:59 PM 34.5764 -110.2233 245° Southwest 427 491 30,100 -1,016 Descending Albuquerque Center
Wed 03:13:01 PM 34.5306 -110.3467 246° West 422 486 29,100 -1,073 Descending Albuquerque Center
Wed 03:14:02 PM 34.4811 -110.4733 245° Southwest 414 476 27,900 -1,073 Descending Albuquerque Center
Wed 03:15:04 PM 34.4361 -110.5947 246° West 401 461 26,900 -968 Descending Albuquerque Center
Wed 03:16:06 PM 34.3911 -110.7117 245° Southwest 389 448 25,900 -1,065 Descending Albuquerque Center
Wed 03:17:08 PM 34.3244 -110.8447 239° Southwest 386 444 24,700 -1,073 Descending Albuquerque Center
Wed 03:18:09 PM 34.2478 -110.9372 225° Southwest 388 447 23,700 -976 Descending Albuquerque Center
Wed 03:19:11 PM 34.1733 -111.0322 227° Southwest 389 448 22,700 -1,113 Descending Albuquerque Center
Wed 03:20:13 PM 34.1017 -111.1244 227° Southwest 381 438 21,400 -1,645 Descending Albuquerque Center
Wed 03:21:15 PM 34.0300 -111.2144 226° Southwest 374 430 19,300 -1,902 Descending Albuquerque Center
Wed 03:22:16 PM 33.9611 -111.3039 227° Southwest 366 421 17,500 -1,707 Descending Albuquerque Center
Wed 03:23:18 PM 33.8922 -111.3906 226° Southwest 358 412 15,800 -1,548 Descending Albuquerque Center
Wed 03:24:20 PM 33.8406 -111.4831 236° Southwest 333 383 14,300 -1,790 Descending Albuquerque Center
Wed 03:25:22 PM 33.7808 -111.5956 237° Southwest 328 377 12,100 -1,951 Descending Albuquerque Center
Wed 03:26:23 PM 33.7319 -111.6878 238° Southwest 325 374 10,300 -1,268 Descending Albuquerque Center
Wed 03:27:25 PM 33.6850 -111.7733 237° Southwest 306 352 9,500 -629 Descending Albuquerque Center
Wed 03:28:27 PM 33.6400 -111.8567 237° Southwest 296 341 9,000 -496 Descending Albuquerque Center
Wed 03:29:38 PM 33.5833 -111.9667 238° Southwest 295 339 8,400 -526 Descending Phoenix TRACON
Wed 03:30:44 PM 33.5333 -112.0500 234° Southwest 270 311 7,800 -803 Descending Phoenix TRACON
Wed 03:31:45 PM 33.5333 -112.1333 270° West 248 285 6,700 -873 Descending Phoenix TRACON
Wed 03:32:34 PM 33.5203 -112.1783 251° West 246 283 6,200 -865 Descending Albuquerque Center
Wed 03:33:36 PM 33.4628 -112.2014 198° South 216 249 5,100 -1,306 Descending Albuquerque Center
Wed 03:34:38 PM 33.4397 -112.1511 119° Southeast 164 189 3,500 -1,424 Descending Albuquerque Center
Wed 03:35:34 PM 33.4333 -112.1000 99° East 154 177 2,300 -991 Descending Phoenix TRACON
Wed 03:36:33 PM 33.4333 -112.0500 90° East 143 165 1,600 -712 Descending Phoenix TRACON

Login

Don't have an account? Register now (free) for customized features, flight alerts, and more!